sensor_id;sensor_type;location;lat;lon;timestamp;temperature;humidity
23719;DHT22;43322;52.230;5.702;2023-04-01T00:01:27;9.90;99.90
23719;DHT22;43322;52.230;5.702;2023-04-01T00:03:54;9.90;99.90
23719;DHT22;43322;52.230;5.702;2023-04-01T00:06:21;9.90;99.90
23719;DHT22;43322;52.230;5.702;2023-04-01T00:08:48;9.90;99.90
23719;DHT22;43322;52.230;5.702;2023-04-01T00:11:16;9.90;99.90
23719;DHT22;43322;52.230;5.702;2023-04-01T00:13:45;9.90;99.90
23719;DHT22;43322;52.230;5.702;2023-04-01T00:16:13;9.90;99.90
23719;DHT22;43322;52.230;5.702;2023-04-01T00:18:40;9.90;99.90
23719;DHT22;43322;52.230;5.702;2023-04-01T00:21:06;9.90;99.90
23719;DHT22;43322;52.230;5.702;2023-04-01T00:23:33;9.90;99.90
23719;DHT22;43322;52.230;5.702;2023-04-01T00:26:00;9.90;99.90
23719;DHT22;43322;52.230;5.702;2023-04-01T00:28:28;9.90;99.90
23719;DHT22;43322;52.230;5.702;2023-04-01T00:30:56;9.90;99.90
23719;DHT22;43322;52.230;5.702;2023-04-01T00:33:23;10.00;99.90
23719;DHT22;43322;52.230;5.702;2023-04-01T00:35:50;9.90;99.90
23719;DHT22;43322;52.230;5.702;2023-04-01T00:38:16;9.90;99.90
23719;DHT22;43322;52.230;5.702;2023-04-01T00:40:45;10.00;99.90
23719;DHT22;43322;52.230;5.702;2023-04-01T00:43:14;10.00;99.90
23719;DHT22;43322;52.230;5.702;2023-04-01T00:45:43;10.00;99.90
23719;DHT22;43322;52.230;5.702;2023-04-01T00:48:14;10.00;99.90
23719;DHT22;43322;52.230;5.702;2023-04-01T00:50:46;10.00;99.90
23719;DHT22;43322;52.230;5.702;2023-04-01T00:53:16;10.00;99.90
23719;DHT22;43322;52.230;5.702;2023-04-01T00:55:50;10.00;99.90
23719;DHT22;43322;52.230;5.702;2023-04-01T00:58:18;10.00;99.90
23719;DHT22;43322;52.230;5.702;2023-04-01T01:00:49;10.00;99.90
23719;DHT22;43322;52.230;5.702;2023-04-01T01:03:18;10.00;99.90
23719;DHT22;43322;52.230;5.702;2023-04-01T01:06:06;10.00;99.90
23719;DHT22;43322;52.230;5.702;2023-04-01T01:08:46;10.00;99.90
23719;DHT22;43322;52.230;5.702;2023-04-01T01:11:19;10.00;99.90
23719;DHT22;43322;52.230;5.702;2023-04-01T01:13:56;10.00;99.90
23719;DHT22;43322;52.230;5.702;2023-04-01T01:16:26;9.90;99.90
23719;DHT22;43322;52.230;5.702;2023-04-01T01:18:59;10.00;99.90
23719;DHT22;43322;52.230;5.702;2023-04-01T01:21:54;10.00;99.90
23719;DHT22;43322;52.230;5.702;2023-04-01T01:24:44;10.00;99.90
23719;DHT22;43322;52.230;5.702;2023-04-01T01:27:18;10.00;99.90
23719;DHT22;43322;52.230;5.702;2023-04-01T01:33:14;9.90;99.90
23719;DHT22;43322;52.230;5.702;2023-04-01T01:35:45;10.00;99.90
23719;DHT22;43322;52.230;5.702;2023-04-01T01:38:15;10.00;99.90
23719;DHT22;43322;52.230;5.702;2023-04-01T01:40:45;9.90;99.90
23719;DHT22;43322;52.230;5.702;2023-04-01T01:43:16;9.90;99.90
23719;DHT22;43322;52.230;5.702;2023-04-01T01:45:47;9.90;99.90
23719;DHT22;43322;52.230;5.702;2023-04-01T01:48:16;9.90;99.90
23719;DHT22;43322;52.230;5.702;2023-04-01T01:50:45;9.90;99.90
23719;DHT22;43322;52.230;5.702;2023-04-01T01:53:14;9.90;99.90
23719;DHT22;43322;52.230;5.702;2023-04-01T01:55:43;9.90;99.90
23719;DHT22;43322;52.230;5.702;2023-04-01T01:58:13;9.90;99.90
23719;DHT22;43322;52.230;5.702;2023-04-01T02:00:44;9.90;99.90
23719;DHT22;43322;52.230;5.702;2023-04-01T02:03:12;9.90;99.90
23719;DHT22;43322;52.230;5.702;2023-04-01T02:05:40;9.90;99.90
23719;DHT22;43322;52.230;5.702;2023-04-01T02:08:12;9.90;99.90
23719;DHT22;43322;52.230;5.702;2023-04-01T02:10:43;9.90;99.90
23719;DHT22;43322;52.230;5.702;2023-04-01T02:13:16;9.80;99.90
23719;DHT22;43322;52.230;5.702;2023-04-01T02:15:47;9.80;99.90
23719;DHT22;43322;52.230;5.702;2023-04-01T02:18:16;9.80;99.90
23719;DHT22;43322;52.230;5.702;2023-04-01T02:20:45;9.80;99.90
23719;DHT22;43322;52.230;5.702;2023-04-01T02:23:13;9.80;99.90
23719;DHT22;43322;52.230;5.702;2023-04-01T02:25:41;9.80;99.90
23719;DHT22;43322;52.230;5.702;2023-04-01T02:28:10;9.90;99.90
23719;DHT22;43322;52.230;5.702;2023-04-01T02:30:39;9.80;99.90
23719;DHT22;43322;52.230;5.702;2023-04-01T02:33:08;9.80;99.90
23719;DHT22;43322;52.230;5.702;2023-04-01T02:35:36;9.80;99.90
23719;DHT22;43322;52.230;5.702;2023-04-01T02:38:03;9.70;99.90
23719;DHT22;43322;52.230;5.702;2023-04-01T02:40:43;9.70;99.90
23719;DHT22;43322;52.230;5.702;2023-04-01T02:43:10;9.70;99.90
23719;DHT22;43322;52.230;5.702;2023-04-01T02:45:37;9.70;99.90
23719;DHT22;43322;52.230;5.702;2023-04-01T02:48:04;9.70;99.90
23719;DHT22;43322;52.230;5.702;2023-04-01T02:50:31;9.70;99.90
23719;DHT22;43322;52.230;5.702;2023-04-01T02:52:58;9.70;99.90
23719;DHT22;43322;52.230;5.702;2023-04-01T02:55:25;9.60;99.90
23719;DHT22;43322;52.230;5.702;2023-04-01T02:57:53;9.60;99.90
23719;DHT22;43322;52.230;5.702;2023-04-01T03:00:20;9.60;99.90
23719;DHT22;43322;52.230;5.702;2023-04-01T03:02:46;9.60;99.90
23719;DHT22;43322;52.230;5.702;2023-04-01T03:05:13;9.60;99.90
23719;DHT22;43322;52.230;5.702;2023-04-01T03:07:40;9.50;99.90
23719;DHT22;43322;52.230;5.702;2023-04-01T03:10:07;9.50;99.90
23719;DHT22;43322;52.230;5.702;2023-04-01T03:12:34;9.50;99.90
23719;DHT22;43322;52.230;5.702;2023-04-01T03:15:03;9.60;99.90
23719;DHT22;43322;52.230;5.702;2023-04-01T03:17:30;9.60;99.90
23719;DHT22;43322;52.230;5.702;2023-04-01T03:19:57;9.60;99.90
23719;DHT22;43322;52.230;5.702;2023-04-01T03:22:23;9.60;99.90
23719;DHT22;43322;52.230;5.702;2023-04-01T03:24:50;9.60;99.90
23719;DHT22;43322;52.230;5.702;2023-04-01T03:27:17;9.60;99.90
23719;DHT22;43322;52.230;5.702;2023-04-01T03:29:43;9.60;99.90
23719;DHT22;43322;52.230;5.702;2023-04-01T03:32:11;9.50;99.90
23719;DHT22;43322;52.230;5.702;2023-04-01T03:34:38;9.60;99.90
23719;DHT22;43322;52.230;5.702;2023-04-01T03:37:05;9.60;99.90
23719;DHT22;43322;52.230;5.702;2023-04-01T03:39:32;9.50;99.90
23719;DHT22;43322;52.230;5.702;2023-04-01T03:41:59;9.60;99.90
23719;DHT22;43322;52.230;5.702;2023-04-01T03:44:26;9.60;99.90
23719;DHT22;43322;52.230;5.702;2023-04-01T03:46:52;9.60;99.90
23719;DHT22;43322;52.230;5.702;2023-04-01T03:49:20;9.60;99.90
23719;DHT22;43322;52.230;5.702;2023-04-01T03:51:47;9.60;99.90
23719;DHT22;43322;52.230;5.702;2023-04-01T03:54:14;9.60;99.90
23719;DHT22;43322;52.230;5.702;2023-04-01T03:56:42;9.60;99.90
23719;DHT22;43322;52.230;5.702;2023-04-01T03:59:09;9.60;99.90
23719;DHT22;43322;52.230;5.702;2023-04-01T04:01:35;9.60;99.90
23719;DHT22;43322;52.230;5.702;2023-04-01T04:04:02;9.60;99.90
23719;DHT22;43322;52.230;5.702;2023-04-01T04:06:32;9.60;99.90
23719;DHT22;43322;52.230;5.702;2023-04-01T04:08:59;9.60;99.90
23719;DHT22;43322;52.230;5.702;2023-04-01T04:11:26;9.60;99.90
23719;DHT22;43322;52.230;5.702;2023-04-01T04:13:52;9.60;99.90
23719;DHT22;43322;52.230;5.702;2023-04-01T04:16:19;9.60;99.90
23719;DHT22;43322;52.230;5.702;2023-04-01T04:18:46;9.60;99.90
23719;DHT22;43322;52.230;5.702;2023-04-01T04:21:14;9.60;99.90
23719;DHT22;43322;52.230;5.702;2023-04-01T04:23:42;9.60;99.90
23719;DHT22;43322;52.230;5.702;2023-04-01T04:26:10;9.60;99.90
23719;DHT22;43322;52.230;5.702;2023-04-01T04:28:38;9.60;99.90
23719;DHT22;43322;52.230;5.702;2023-04-01T04:31:05;9.80;99.90
23719;DHT22;43322;52.230;5.702;2023-04-01T04:33:33;9.60;99.90
23719;DHT22;43322;52.230;5.702;2023-04-01T04:36:01;9.50;99.90
23719;DHT22;43322;52.230;5.702;2023-04-01T04:38:28;9.50;99.90
23719;DHT22;43322;52.230;5.702;2023-04-01T04:40:56;9.60;99.90
23719;DHT22;43322;52.230;5.702;2023-04-01T04:43:23;9.60;99.90
23719;DHT22;43322;52.230;5.702;2023-04-01T04:45:50;9.60;99.90
23719;DHT22;43322;52.230;5.702;2023-04-01T04:48:17;9.60;99.90
23719;DHT22;43322;52.230;5.702;2023-04-01T04:50:46;9.60;99.90
23719;DHT22;43322;52.230;5.702;2023-04-01T04:53:14;9.60;99.90
23719;DHT22;43322;52.230;5.702;2023-04-01T04:55:45;9.60;99.90
23719;DHT22;43322;52.230;5.702;2023-04-01T04:58:13;9.70;99.90
23719;DHT22;43322;52.230;5.702;2023-04-01T05:00:40;9.50;99.90
23719;DHT22;43322;52.230;5.702;2023-04-01T05:03:07;9.10;99.90
23719;DHT22;43322;52.230;5.702;2023-04-01T05:05:34;9.50;99.90
23719;DHT22;43322;52.230;5.702;2023-04-01T05:08:01;9.50;99.90
23719;DHT22;43322;52.230;5.702;2023-04-01T05:10:28;9.90;99.90
23719;DHT22;43322;52.230;5.702;2023-04-01T05:12:56;9.60;99.90
23719;DHT22;43322;52.230;5.702;2023-04-01T05:15:24;9.50;99.90
23719;DHT22;43322;52.230;5.702;2023-04-01T05:17:51;9.60;99.90
23719;DHT22;43322;52.230;5.702;2023-04-01T05:20:17;9.60;99.90
23719;DHT22;43322;52.230;5.702;2023-04-01T05:22:44;9.50;99.90
23719;DHT22;43322;52.230;5.702;2023-04-01T05:25:11;9.60;99.90
23719;DHT22;43322;52.230;5.702;2023-04-01T05:27:37;9.50;99.90
23719;DHT22;43322;52.230;5.702;2023-04-01T05:30:06;9.60;99.90
23719;DHT22;43322;52.230;5.702;2023-04-01T05:32:34;9.50;99.90
23719;DHT22;43322;52.230;5.702;2023-04-01T05:35:01;9.60;99.90
23719;DHT22;43322;52.230;5.702;2023-04-01T05:37:27;9.50;99.90
23719;DHT22;43322;52.230;5.702;2023-04-01T05:39:54;9.60;99.90
23719;DHT22;43322;52.230;5.702;2023-04-01T05:42:21;9.60;99.90
23719;DHT22;43322;52.230;5.702;2023-04-01T05:44:47;9.60;99.90
23719;DHT22;43322;52.230;5.702;2023-04-01T05:47:14;9.60;99.90
23719;DHT22;43322;52.230;5.702;2023-04-01T05:49:42;9.60;99.90
23719;DHT22;43322;52.230;5.702;2023-04-01T05:52:09;9.60;99.90
23719;DHT22;43322;52.230;5.702;2023-04-01T05:54:36;9.50;99.90
23719;DHT22;43322;52.230;5.702;2023-04-01T05:57:03;9.50;99.90
23719;DHT22;43322;52.230;5.702;2023-04-01T05:59:29;9.60;99.90
23719;DHT22;43322;52.230;5.702;2023-04-01T06:01:57;9.60;99.90
23719;DHT22;43322;52.230;5.702;2023-04-01T06:04:24;9.60;99.90
23719;DHT22;43322;52.230;5.702;2023-04-01T06:06:52;9.60;99.90
23719;DHT22;43322;52.230;5.702;2023-04-01T06:09:26;10.20;99.90
23719;DHT22;43322;52.230;5.702;2023-04-01T06:12:14;9.60;99.90
23719;DHT22;43322;52.230;5.702;2023-04-01T06:14:48;9.60;99.90
23719;DHT22;43322;52.230;5.702;2023-04-01T06:17:25;9.60;99.90
23719;DHT22;43322;52.230;5.702;2023-04-01T06:19:59;9.50;99.90
23719;DHT22;43322;52.230;5.702;2023-04-01T06:36:12;9.60;99.90
23719;DHT22;43322;52.230;5.702;2023-04-01T06:38:51;9.60;99.90
23719;DHT22;43322;52.230;5.702;2023-04-01T06:44:29;9.70;99.90
23719;DHT22;43322;52.230;5.702;2023-04-01T06:47:03;9.80;99.90
23719;DHT22;43322;52.230;5.702;2023-04-01T06:49:41;9.70;99.90
23719;DHT22;43322;52.230;5.702;2023-04-01T06:52:19;9.80;99.90
23719;DHT22;43322;52.230;5.702;2023-04-01T06:54:52;9.90;99.90
23719;DHT22;43322;52.230;5.702;2023-04-01T06:57:31;9.90;99.90
23719;DHT22;43322;52.230;5.702;2023-04-01T07:00:01;10.00;99.90
23719;DHT22;43322;52.230;5.702;2023-04-01T07:02:33;10.10;99.90
23719;DHT22;43322;52.230;5.702;2023-04-01T07:05:04;10.10;99.90
23719;DHT22;43322;52.230;5.702;2023-04-01T07:07:35;10.20;99.90
23719;DHT22;43322;52.230;5.702;2023-04-01T07:10:11;10.20;99.90
23719;DHT22;43322;52.230;5.702;2023-04-01T07:12:44;10.20;99.90
23719;DHT22;43322;52.230;5.702;2023-04-01T07:15:17;10.30;99.90
23719;DHT22;43322;52.230;5.702;2023-04-01T07:17:47;10.30;99.90
23719;DHT22;43322;52.230;5.702;2023-04-01T07:20:17;10.40;99.90
23719;DHT22;43322;52.230;5.702;2023-04-01T07:22:48;10.30;99.90
23719;DHT22;43322;52.230;5.702;2023-04-01T07:25:17;10.40;99.90
23719;DHT22;43322;52.230;5.702;2023-04-01T07:27:46;10.30;99.90
23719;DHT22;43322;52.230;5.702;2023-04-01T07:30:16;10.30;99.90
23719;DHT22;43322;52.230;5.702;2023-04-01T07:32:47;10.40;99.90
23719;DHT22;43322;52.230;5.702;2023-04-01T07:35:22;10.50;99.90
23719;DHT22;43322;52.230;5.702;2023-04-01T07:38:04;10.50;99.90
23719;DHT22;43322;52.230;5.702;2023-04-01T07:40:40;10.50;99.90
23719;DHT22;43322;52.230;5.702;2023-04-01T07:43:37;10.40;99.90
23719;DHT22;43322;52.230;5.702;2023-04-01T07:46:17;10.40;99.90
23719;DHT22;43322;52.230;5.702;2023-04-01T07:48:53;10.50;99.90
23719;DHT22;43322;52.230;5.702;2023-04-01T07:51:28;10.50;99.90
23719;DHT22;43322;52.230;5.702;2023-04-01T07:54:03;10.50;99.90
23719;DHT22;43322;52.230;5.702;2023-04-01T07:56:37;10.50;99.90
23719;DHT22;43322;52.230;5.702;2023-04-01T07:59:11;10.50;99.90
23719;DHT22;43322;52.230;5.702;2023-04-01T08:01:48;10.50;99.90
23719;DHT22;43322;52.230;5.702;2023-04-01T08:04:40;10.50;99.90
23719;DHT22;43322;52.230;5.702;2023-04-01T08:07:14;10.60;99.90
23719;DHT22;43322;52.230;5.702;2023-04-01T08:09:48;10.60;99.90
23719;DHT22;43322;52.230;5.702;2023-04-01T08:12:31;10.60;99.90
23719;DHT22;43322;52.230;5.702;2023-04-01T08:15:07;10.60;99.90
23719;DHT22;43322;52.230;5.702;2023-04-01T08:17:43;10.60;99.90
23719;DHT22;43322;52.230;5.702;2023-04-01T08:20:19;10.50;99.90
23719;DHT22;43322;52.230;5.702;2023-04-01T08:22:52;10.50;99.90
23719;DHT22;43322;52.230;5.702;2023-04-01T08:25:27;10.50;99.90
23719;DHT22;43322;52.230;5.702;2023-04-01T08:27:58;10.60;99.90
23719;DHT22;43322;52.230;5.702;2023-04-01T08:30:27;10.60;99.90
23719;DHT22;43322;52.230;5.702;2023-04-01T08:32:59;10.60;99.90
23719;DHT22;43322;52.230;5.702;2023-04-01T08:35:31;10.60;99.90
23719;DHT22;43322;52.230;5.702;2023-04-01T08:38:05;10.50;99.90
23719;DHT22;43322;52.230;5.702;2023-04-01T08:40:55;10.50;99.90
23719;DHT22;43322;52.230;5.702;2023-04-01T08:43:35;10.50;99.90
23719;DHT22;43322;52.230;5.702;2023-04-01T08:46:17;10.50;99.90
23719;DHT22;43322;52.230;5.702;2023-04-01T08:49:00;10.50;99.90
23719;DHT22;43322;52.230;5.702;2023-04-01T08:54:48;10.50;99.90
23719;DHT22;43322;52.230;5.702;2023-04-01T08:57:35;10.50;99.90
23719;DHT22;43322;52.230;5.702;2023-04-01T09:00:14;10.60;99.90
23719;DHT22;43322;52.230;5.702;2023-04-01T09:03:08;10.70;99.90
23719;DHT22;43322;52.230;5.702;2023-04-01T09:06:05;10.80;99.90
23719;DHT22;43322;52.230;5.702;2023-04-01T09:08:49;10.90;99.90
23719;DHT22;43322;52.230;5.702;2023-04-01T09:11:28;10.90;99.90
23719;DHT22;43322;52.230;5.702;2023-04-01T09:14:29;10.90;99.90
23719;DHT22;43322;52.230;5.702;2023-04-01T09:17:18;11.10;99.90
23719;DHT22;43322;52.230;5.702;2023-04-01T09:20:05;11.10;99.90
23719;DHT22;43322;52.230;5.702;2023-04-01T09:22:50;11.30;99.90
23719;DHT22;43322;52.230;5.702;2023-04-01T09:25:32;11.50;99.90
23719;DHT22;43322;52.230;5.702;2023-04-01T09:28:07;11.50;99.90
23719;DHT22;43322;52.230;5.702;2023-04-01T09:31:08;11.50;99.90
23719;DHT22;43322;52.230;5.702;2023-04-01T09:36:45;11.50;99.90
23719;DHT22;43322;52.230;5.702;2023-04-01T09:39:34;11.60;99.90
23719;DHT22;43322;52.230;5.702;2023-04-01T09:42:23;11.60;99.90
23719;DHT22;43322;52.230;5.702;2023-04-01T09:44:58;11.60;99.90
23719;DHT22;43322;52.230;5.702;2023-04-01T09:47:42;11.60;99.90
23719;DHT22;43322;52.230;5.702;2023-04-01T09:50:21;11.50;99.90
23719;DHT22;43322;52.230;5.702;2023-04-01T09:53:02;11.40;99.90
23719;DHT22;43322;52.230;5.702;2023-04-01T09:56:01;11.80;99.90
23719;DHT22;43322;52.230;5.702;2023-04-01T10:08:12;11.70;99.90
23719;DHT22;43322;52.230;5.702;2023-04-01T10:11:21;11.80;99.90
23719;DHT22;43322;52.230;5.702;2023-04-01T10:14:22;11.70;99.90
23719;DHT22;43322;52.230;5.702;2023-04-01T10:17:14;11.70;99.90
23719;DHT22;43322;52.230;5.702;2023-04-01T10:20:00;11.60;99.90
23719;DHT22;43322;52.230;5.702;2023-04-01T10:22:56;11.70;99.90
23719;DHT22;43322;52.230;5.702;2023-04-01T10:26:04;11.60;99.90
23719;DHT22;43322;52.230;5.702;2023-04-01T10:32:09;11.30;99.90
23719;DHT22;43322;52.230;5.702;2023-04-01T10:35:20;11.30;99.90
23719;DHT22;43322;52.230;5.702;2023-04-01T10:44:39;11.20;99.90
23719;DHT22;43322;52.230;5.702;2023-04-01T10:50:26;11.10;99.90
23719;DHT22;43322;52.230;5.702;2023-04-01T10:53:27;11.20;99.90
23719;DHT22;43322;52.230;5.702;2023-04-01T10:56:29;11.20;99.90
23719;DHT22;43322;52.230;5.702;2023-04-01T11:02:12;11.20;99.90
23719;DHT22;43322;52.230;5.702;2023-04-01T11:11:13;11.60;99.90
23719;DHT22;43322;52.230;5.702;2023-04-01T11:14:05;11.60;99.90
23719;DHT22;43322;52.230;5.702;2023-04-01T11:16:59;11.80;99.90
23719;DHT22;43322;52.230;5.702;2023-04-01T11:19:58;12.10;99.90
23719;DHT22;43322;52.230;5.702;2023-04-01T11:22:51;12.00;99.90
23719;DHT22;43322;52.230;5.702;2023-04-01T11:25:36;12.00;99.90
23719;DHT22;43322;52.230;5.702;2023-04-01T11:28:38;11.80;99.90
23719;DHT22;43322;52.230;5.702;2023-04-01T11:31:22;11.80;99.90
23719;DHT22;43322;52.230;5.702;2023-04-01T11:33:55;11.70;99.90
23719;DHT22;43322;52.230;5.702;2023-04-01T11:36:32;11.80;99.90
23719;DHT22;43322;52.230;5.702;2023-04-01T11:39:14;11.80;99.90
23719;DHT22;43322;52.230;5.702;2023-04-01T11:41:51;11.80;99.90
23719;DHT22;43322;52.230;5.702;2023-04-01T11:44:25;11.60;99.90
23719;DHT22;43322;52.230;5.702;2023-04-01T11:47:19;11.70;99.90
23719;DHT22;43322;52.230;5.702;2023-04-01T11:49:59;11.60;99.90
23719;DHT22;43322;52.230;5.702;2023-04-01T11:52:42;11.60;99.90
23719;DHT22;43322;52.230;5.702;2023-04-01T11:55:23;11.50;99.90
23719;DHT22;43322;52.230;5.702;2023-04-01T12:01:17;11.40;99.90
23719;DHT22;43322;52.230;5.702;2023-04-01T12:07:03;11.30;99.90
23719;DHT22;43322;52.230;5.702;2023-04-01T12:09:38;11.20;99.90
23719;DHT22;43322;52.230;5.702;2023-04-01T12:12:14;11.30;99.90
23719;DHT22;43322;52.230;5.702;2023-04-01T12:14:49;11.40;99.90
23719;DHT22;43322;52.230;5.702;2023-04-01T12:17:29;11.40;99.90
23719;DHT22;43322;52.230;5.702;2023-04-01T12:20:02;11.40;99.90
23719;DHT22;43322;52.230;5.702;2023-04-01T12:22:46;11.50;99.90
23719;DHT22;43322;52.230;5.702;2023-04-01T12:25:22;11.40;99.90
23719;DHT22;43322;52.230;5.702;2023-04-01T12:28:03;11.50;99.90
23719;DHT22;43322;52.230;5.702;2023-04-01T12:30:45;11.60;99.90
23719;DHT22;43322;52.230;5.702;2023-04-01T12:36:26;11.60;99.90
23719;DHT22;43322;52.230;5.702;2023-04-01T12:39:15;11.70;99.90
23719;DHT22;43322;52.230;5.702;2023-04-01T12:41:51;11.70;99.90
23719;DHT22;43322;52.230;5.702;2023-04-01T12:44:38;11.70;99.90
23719;DHT22;43322;52.230;5.702;2023-04-01T12:47:34;11.80;99.90
23719;DHT22;43322;52.230;5.702;2023-04-01T12:50:23;11.70;99.90
23719;DHT22;43322;52.230;5.702;2023-04-01T12:53:04;11.70;99.90
23719;DHT22;43322;52.230;5.702;2023-04-01T12:55:39;11.70;99.90
23719;DHT22;43322;52.230;5.702;2023-04-01T12:58:40;11.70;99.90
23719;DHT22;43322;52.230;5.702;2023-04-01T13:01:22;11.60;99.90
23719;DHT22;43322;52.230;5.702;2023-04-01T13:07:04;11.60;99.90
23719;DHT22;43322;52.230;5.702;2023-04-01T13:09:42;11.60;99.90
23719;DHT22;43322;52.230;5.702;2023-04-01T13:12:32;11.50;99.90
23719;DHT22;43322;52.230;5.702;2023-04-01T13:15:14;11.50;99.90
23719;DHT22;43322;52.230;5.702;2023-04-01T13:17:49;11.50;99.90
23719;DHT22;43322;52.230;5.702;2023-04-01T13:20:28;11.50;99.90
23719;DHT22;43322;52.230;5.702;2023-04-01T13:23:05;11.50;99.90
23719;DHT22;43322;52.230;5.702;2023-04-01T13:25:40;11.40;99.90
23719;DHT22;43322;52.230;5.702;2023-04-01T13:28:15;11.40;99.90
23719;DHT22;43322;52.230;5.702;2023-04-01T13:30:47;11.40;99.90
23719;DHT22;43322;52.230;5.702;2023-04-01T13:33:23;11.40;99.90
23719;DHT22;43322;52.230;5.702;2023-04-01T13:36:00;11.50;99.90
23719;DHT22;43322;52.230;5.702;2023-04-01T13:38:54;11.50;99.90
23719;DHT22;43322;52.230;5.702;2023-04-01T13:41:38;11.50;99.90
23719;DHT22;43322;52.230;5.702;2023-04-01T13:44:11;11.70;99.90
23719;DHT22;43322;52.230;5.702;2023-04-01T13:46:52;11.50;99.90
23719;DHT22;43322;52.230;5.702;2023-04-01T13:49:41;11.40;99.90
23719;DHT22;43322;52.230;5.702;2023-04-01T13:52:28;11.40;99.90
23719;DHT22;43322;52.230;5.702;2023-04-01T13:55:20;11.30;99.90
23719;DHT22;43322;52.230;5.702;2023-04-01T13:58:05;11.20;99.90
23719;DHT22;43322;52.230;5.702;2023-04-01T14:00:42;11.10;99.90
23719;DHT22;43322;52.230;5.702;2023-04-01T14:03:42;11.00;99.90
23719;DHT22;43322;52.230;5.702;2023-04-01T14:06:31;11.00;99.90
23719;DHT22;43322;52.230;5.702;2023-04-01T14:09:19;10.90;99.90
23719;DHT22;43322;52.230;5.702;2023-04-01T14:12:00;10.90;99.90
23719;DHT22;43322;52.230;5.702;2023-04-01T14:14:40;10.90;99.90
23719;DHT22;43322;52.230;5.702;2023-04-01T14:20:33;11.00;99.90
23719;DHT22;43322;52.230;5.702;2023-04-01T14:23:13;11.00;99.90
23719;DHT22;43322;52.230;5.702;2023-04-01T14:26:00;11.00;99.90
23719;DHT22;43322;52.230;5.702;2023-04-01T14:28:32;11.10;99.90
23719;DHT22;43322;52.230;5.702;2023-04-01T14:31:18;11.10;99.90
23719;DHT22;43322;52.230;5.702;2023-04-01T14:33:58;11.10;99.90
23719;DHT22;43322;52.230;5.702;2023-04-01T14:36:43;11.10;99.90
23719;DHT22;43322;52.230;5.702;2023-04-01T14:39:33;11.20;99.90
23719;DHT22;43322;52.230;5.702;2023-04-01T14:42:15;11.20;99.90
23719;DHT22;43322;52.230;5.702;2023-04-01T14:45:12;11.30;99.90
23719;DHT22;43322;52.230;5.702;2023-04-01T14:47:48;11.30;99.90
23719;DHT22;43322;52.230;5.702;2023-04-01T14:50:18;11.30;99.90
23719;DHT22;43322;52.230;5.702;2023-04-01T14:52:57;11.40;99.90
23719;DHT22;43322;52.230;5.702;2023-04-01T14:55:31;11.30;99.90
23719;DHT22;43322;52.230;5.702;2023-04-01T14:58:10;11.30;99.90
23719;DHT22;43322;52.230;5.702;2023-04-01T15:00:50;11.30;99.90
23719;DHT22;43322;52.230;5.702;2023-04-01T15:03:25;11.10;99.90
23719;DHT22;43322;52.230;5.702;2023-04-01T15:05:59;11.00;99.90
23719;DHT22;43322;52.230;5.702;2023-04-01T15:08:29;11.00;99.90
23719;DHT22;43322;52.230;5.702;2023-04-01T15:11:15;11.00;99.90
23719;DHT22;43322;52.230;5.702;2023-04-01T15:16:55;10.90;99.90
23719;DHT22;43322;52.230;5.702;2023-04-01T15:19:39;10.90;99.90
23719;DHT22;43322;52.230;5.702;2023-04-01T15:22:40;10.90;99.90
23719;DHT22;43322;52.230;5.702;2023-04-01T15:25:23;10.90;99.90
23719;DHT22;43322;52.230;5.702;2023-04-01T15:27:56;10.90;99.90
23719;DHT22;43322;52.230;5.702;2023-04-01T15:30:33;10.90;99.90
23719;DHT22;43322;52.230;5.702;2023-04-01T15:33:16;10.80;99.90
23719;DHT22;43322;52.230;5.702;2023-04-01T15:35:52;10.70;99.90
23719;DHT22;43322;52.230;5.702;2023-04-01T15:38:31;10.80;99.90
23719;DHT22;43322;52.230;5.702;2023-04-01T15:41:04;10.80;99.90
23719;DHT22;43322;52.230;5.702;2023-04-01T15:43:40;10.80;99.90
23719;DHT22;43322;52.230;5.702;2023-04-01T15:46:24;10.70;99.90
23719;DHT22;43322;52.230;5.702;2023-04-01T15:49:01;10.70;99.90
23719;DHT22;43322;52.230;5.702;2023-04-01T15:52:17;10.60;99.90
23719;DHT22;43322;52.230;5.702;2023-04-01T15:55:19;10.60;99.90
23719;DHT22;43322;52.230;5.702;2023-04-01T15:57:56;10.60;99.90
23719;DHT22;43322;52.230;5.702;2023-04-01T16:00:31;10.50;99.90
23719;DHT22;43322;52.230;5.702;2023-04-01T16:03:18;10.50;99.90
23719;DHT22;43322;52.230;5.702;2023-04-01T16:06:01;10.40;99.90
23719;DHT22;43322;52.230;5.702;2023-04-01T16:08:58;10.30;99.90
23719;DHT22;43322;52.230;5.702;2023-04-01T16:11:36;10.30;99.90
23719;DHT22;43322;52.230;5.702;2023-04-01T16:14:14;10.20;99.90
23719;DHT22;43322;52.230;5.702;2023-04-01T16:16:53;10.20;99.90
23719;DHT22;43322;52.230;5.702;2023-04-01T16:19:33;10.10;99.90
23719;DHT22;43322;52.230;5.702;2023-04-01T16:22:07;10.20;99.90
23719;DHT22;43322;52.230;5.702;2023-04-01T16:24:40;10.20;99.90
23719;DHT22;43322;52.230;5.702;2023-04-01T16:27:13;10.20;99.90
23719;DHT22;43322;52.230;5.702;2023-04-01T16:29:45;10.50;99.90
23719;DHT22;43322;52.230;5.702;2023-04-01T16:32:23;10.10;99.90
23719;DHT22;43322;52.230;5.702;2023-04-01T16:35:03;10.00;99.90
23719;DHT22;43322;52.230;5.702;2023-04-01T16:37:35;9.90;99.90
23719;DHT22;43322;52.230;5.702;2023-04-01T16:40:16;9.80;99.90
23719;DHT22;43322;52.230;5.702;2023-04-01T16:42:50;9.80;99.90
23719;DHT22;43322;52.230;5.702;2023-04-01T16:45:30;9.80;99.90
23719;DHT22;43322;52.230;5.702;2023-04-01T16:48:05;9.80;99.90
23719;DHT22;43322;52.230;5.702;2023-04-01T16:50:44;9.80;99.90
23719;DHT22;43322;52.230;5.702;2023-04-01T16:53:17;9.70;99.90
23719;DHT22;43322;52.230;5.702;2023-04-01T16:55:50;9.70;99.90
23719;DHT22;43322;52.230;5.702;2023-04-01T16:58:23;9.70;99.90
23719;DHT22;43322;52.230;5.702;2023-04-01T17:00:54;9.70;99.90
23719;DHT22;43322;52.230;5.702;2023-04-01T17:03:26;9.70;99.90
23719;DHT22;43322;52.230;5.702;2023-04-01T17:06:11;9.70;99.90
23719;DHT22;43322;52.230;5.702;2023-04-01T17:09:00;9.80;99.90
23719;DHT22;43322;52.230;5.702;2023-04-01T17:11:36;9.80;99.90
23719;DHT22;43322;52.230;5.702;2023-04-01T17:14:15;9.70;99.90
23719;DHT22;43322;52.230;5.702;2023-04-01T17:17:03;9.60;99.90
23719;DHT22;43322;52.230;5.702;2023-04-01T17:19:47;9.50;99.90
23719;DHT22;43322;52.230;5.702;2023-04-01T17:22:25;9.50;99.90
23719;DHT22;43322;52.230;5.702;2023-04-01T17:25:04;9.50;99.90
23719;DHT22;43322;52.230;5.702;2023-04-01T17:27:42;9.50;99.90
23719;DHT22;43322;52.230;5.702;2023-04-01T17:30:20;9.60;99.90
23719;DHT22;43322;52.230;5.702;2023-04-01T17:32:58;9.40;99.90
23719;DHT22;43322;52.230;5.702;2023-04-01T17:35:32;9.30;99.90
23719;DHT22;43322;52.230;5.702;2023-04-01T17:38:11;9.30;99.90
23719;DHT22;43322;52.230;5.702;2023-04-01T17:40:49;9.30;99.90
23719;DHT22;43322;52.230;5.702;2023-04-01T17:43:22;9.30;99.90
23719;DHT22;43322;52.230;5.702;2023-04-01T17:45:54;9.20;99.90
23719;DHT22;43322;52.230;5.702;2023-04-01T17:48:34;9.30;99.90
23719;DHT22;43322;52.230;5.702;2023-04-01T17:51:12;9.20;99.90